sensor_id;sensor_type;location;lat;lon;timestamp;P1;durP1;ratioP1;P2;durP2;ratioP2
8895;SDS011;4484;48.928;10.066;2022-08-19T00:01:43;7.83;;;7.13;;
8895;SDS011;4484;48.928;10.066;2022-08-19T00:04:23;7.90;;;7.20;;
8895;SDS011;4484;48.928;10.066;2022-08-19T00:06:53;9.40;;;8.50;;
8895;SDS011;4484;48.928;10.066;2022-08-19T00:09:20;8.50;;;7.60;;
8895;SDS011;4484;48.928;10.066;2022-08-19T00:11:48;8.17;;;7.40;;
8895;SDS011;4484;48.928;10.066;2022-08-19T00:14:16;8.80;;;7.90;;
8895;SDS011;4484;48.928;10.066;2022-08-19T00:16:44;8.70;;;7.87;;
8895;SDS011;4484;48.928;10.066;2022-08-19T00:19:13;8.23;;;7.43;;
8895;SDS011;4484;48.928;10.066;2022-08-19T00:21:41;8.90;;;8.00;;
8895;SDS011;4484;48.928;10.066;2022-08-19T00:24:10;8.73;;;7.93;;
8895;SDS011;4484;48.928;10.066;2022-08-19T00:26:39;9.37;;;8.47;;
8895;SDS011;4484;48.928;10.066;2022-08-19T00:29:08;9.50;;;8.60;;
8895;SDS011;4484;48.928;10.066;2022-08-19T00:31:36;8.97;;;8.00;;
8895;SDS011;4484;48.928;10.066;2022-08-19T00:34:03;9.00;;;8.10;;
8895;SDS011;4484;48.928;10.066;2022-08-19T00:36:30;10.23;;;9.33;;
8895;SDS011;4484;48.928;10.066;2022-08-19T00:38:59;9.10;;;8.23;;
8895;SDS011;4484;48.928;10.066;2022-08-19T00:41:26;10.37;;;9.37;;
8895;SDS011;4484;48.928;10.066;2022-08-19T00:44:08;10.87;;;9.77;;
8895;SDS011;4484;48.928;10.066;2022-08-19T00:46:46;13.23;;;10.80;;
8895;SDS011;4484;48.928;10.066;2022-08-19T00:52:22;10.83;;;9.80;;
8895;SDS011;4484;48.928;10.066;2022-08-19T00:54:55;10.80;;;9.73;;
8895;SDS011;4484;48.928;10.066;2022-08-19T00:57:28;10.47;;;9.47;;
8895;SDS011;4484;48.928;10.066;2022-08-19T01:00:03;10.83;;;9.73;;
8895;SDS011;4484;48.928;10.066;2022-08-19T01:02:36;13.33;;;11.23;;
8895;SDS011;4484;48.928;10.066;2022-08-19T01:05:05;14.23;;;12.73;;
8895;SDS011;4484;48.928;10.066;2022-08-19T01:07:35;12.33;;;11.03;;
8895;SDS011;4484;48.928;10.066;2022-08-19T01:10:05;16.13;;;13.90;;
8895;SDS011;4484;48.928;10.066;2022-08-19T01:12:35;16.70;;;14.93;;
8895;SDS011;4484;48.928;10.066;2022-08-19T01:15:03;16.17;;;14.17;;
8895;SDS011;4484;48.928;10.066;2022-08-19T01:17:36;13.53;;;12.13;;
8895;SDS011;4484;48.928;10.066;2022-08-19T01:20:05;12.33;;;11.03;;
8895;SDS011;4484;48.928;10.066;2022-08-19T01:22:37;15.27;;;12.50;;
8895;SDS011;4484;48.928;10.066;2022-08-19T01:25:13;15.33;;;12.23;;
8895;SDS011;4484;48.928;10.066;2022-08-19T01:27:43;15.10;;;13.50;;
8895;SDS011;4484;48.928;10.066;2022-08-19T01:30:16;18.50;;;15.37;;
8895;SDS011;4484;48.928;10.066;2022-08-19T01:32:48;15.17;;;13.57;;
8895;SDS011;4484;48.928;10.066;2022-08-19T01:35:16;17.00;;;13.83;;
8895;SDS011;4484;48.928;10.066;2022-08-19T01:40:14;13.17;;;11.87;;
8895;SDS011;4484;48.928;10.066;2022-08-19T01:42:42;14.10;;;12.70;;
8895;SDS011;4484;48.928;10.066;2022-08-19T01:45:09;13.40;;;11.57;;
8895;SDS011;4484;48.928;10.066;2022-08-19T01:47:36;12.97;;;11.70;;
8895;SDS011;4484;48.928;10.066;2022-08-19T01:50:05;12.80;;;11.47;;
8895;SDS011;4484;48.928;10.066;2022-08-19T01:52:35;13.20;;;11.90;;
8895;SDS011;4484;48.928;10.066;2022-08-19T01:55:03;12.43;;;11.20;;
8895;SDS011;4484;48.928;10.066;2022-08-19T01:57:34;13.00;;;11.70;;
8895;SDS011;4484;48.928;10.066;2022-08-19T02:00:03;13.50;;;12.17;;
8895;SDS011;4484;48.928;10.066;2022-08-19T02:02:36;14.33;;;12.93;;
8895;SDS011;4484;48.928;10.066;2022-08-19T02:05:04;14.67;;;13.17;;
8895;SDS011;4484;48.928;10.066;2022-08-19T02:07:36;13.27;;;11.40;;
8895;SDS011;4484;48.928;10.066;2022-08-19T02:10:08;12.57;;;10.93;;
8895;SDS011;4484;48.928;10.066;2022-08-19T02:12:38;11.60;;;10.40;;
8895;SDS011;4484;48.928;10.066;2022-08-19T02:15:06;13.73;;;11.27;;
8895;SDS011;4484;48.928;10.066;2022-08-19T02:17:33;16.37;;;12.97;;
8895;SDS011;4484;48.928;10.066;2022-08-19T02:20:00;13.93;;;12.43;;
8895;SDS011;4484;48.928;10.066;2022-08-19T02:22:28;14.03;;;12.53;;
8895;SDS011;4484;48.928;10.066;2022-08-19T02:24:55;16.43;;;14.77;;
8895;SDS011;4484;48.928;10.066;2022-08-19T02:27:22;15.33;;;13.73;;
8895;SDS011;4484;48.928;10.066;2022-08-19T02:29:49;16.73;;;14.93;;
8895;SDS011;4484;48.928;10.066;2022-08-19T02:32:18;17.90;;;14.10;;
8895;SDS011;4484;48.928;10.066;2022-08-19T02:34:46;16.37;;;14.07;;
8895;SDS011;4484;48.928;10.066;2022-08-19T02:37:14;15.57;;;13.60;;
8895;SDS011;4484;48.928;10.066;2022-08-19T02:40:00;13.20;;;11.80;;
8895;SDS011;4484;48.928;10.066;2022-08-19T02:42:28;12.70;;;11.37;;
8895;SDS011;4484;48.928;10.066;2022-08-19T02:44:55;13.27;;;11.87;;
8895;SDS011;4484;48.928;10.066;2022-08-19T02:47:22;16.67;;;14.27;;
8895;SDS011;4484;48.928;10.066;2022-08-19T02:49:50;15.43;;;13.47;;
8895;SDS011;4484;48.928;10.066;2022-08-19T02:52:17;13.63;;;12.23;;
8895;SDS011;4484;48.928;10.066;2022-08-19T02:54:44;13.83;;;12.33;;
8895;SDS011;4484;48.928;10.066;2022-08-19T02:57:10;13.53;;;12.03;;
8895;SDS011;4484;48.928;10.066;2022-08-19T02:59:37;13.60;;;11.80;;
8895;SDS011;4484;48.928;10.066;2022-08-19T03:02:04;12.93;;;11.10;;
8895;SDS011;4484;48.928;10.066;2022-08-19T03:04:31;12.83;;;11.50;;
8895;SDS011;4484;48.928;10.066;2022-08-19T03:06:58;13.83;;;11.13;;
8895;SDS011;4484;48.928;10.066;2022-08-19T03:09:36;11.03;;;9.93;;
8895;SDS011;4484;48.928;10.066;2022-08-19T03:12:04;13.90;;;12.40;;
8895;SDS011;4484;48.928;10.066;2022-08-19T03:14:33;16.53;;;14.83;;
8895;SDS011;4484;48.928;10.066;2022-08-19T03:17:00;14.57;;;12.97;;
8895;SDS011;4484;48.928;10.066;2022-08-19T03:19:27;13.77;;;12.37;;
8895;SDS011;4484;48.928;10.066;2022-08-19T03:21:54;13.20;;;11.80;;
8895;SDS011;4484;48.928;10.066;2022-08-19T03:24:21;12.30;;;10.43;;
8895;SDS011;4484;48.928;10.066;2022-08-19T03:26:49;12.87;;;10.90;;
8895;SDS011;4484;48.928;10.066;2022-08-19T03:29:18;12.27;;;10.97;;
8895;SDS011;4484;48.928;10.066;2022-08-19T03:32:09;14.97;;;13.37;;
8895;SDS011;4484;48.928;10.066;2022-08-19T03:34:56;12.67;;;11.37;;
8895;SDS011;4484;48.928;10.066;2022-08-19T03:37:23;13.57;;;11.73;;
8895;SDS011;4484;48.928;10.066;2022-08-19T03:39:51;13.83;;;12.43;;
8895;SDS011;4484;48.928;10.066;2022-08-19T03:42:18;14.23;;;12.17;;
8895;SDS011;4484;48.928;10.066;2022-08-19T03:45:05;13.87;;;12.37;;
8895;SDS011;4484;48.928;10.066;2022-08-19T03:47:33;13.07;;;11.60;;
8895;SDS011;4484;48.928;10.066;2022-08-19T03:50:00;16.90;;;11.97;;
8895;SDS011;4484;48.928;10.066;2022-08-19T03:52:28;11.93;;;10.73;;
8895;SDS011;4484;48.928;10.066;2022-08-19T03:54:55;13.27;;;11.57;;
8895;SDS011;4484;48.928;10.066;2022-08-19T03:57:22;11.83;;;10.73;;
8895;SDS011;4484;48.928;10.066;2022-08-19T03:59:57;12.27;;;10.17;;
8895;SDS011;4484;48.928;10.066;2022-08-19T04:02:39;10.67;;;9.57;;
8895;SDS011;4484;48.928;10.066;2022-08-19T04:05:23;10.77;;;9.77;;
8895;SDS011;4484;48.928;10.066;2022-08-19T04:07:53;11.43;;;10.33;;
8895;SDS011;4484;48.928;10.066;2022-08-19T04:10:21;11.23;;;10.07;;
8895;SDS011;4484;48.928;10.066;2022-08-19T04:12:48;13.77;;;11.97;;
8895;SDS011;4484;48.928;10.066;2022-08-19T04:15:16;12.97;;;11.67;;
8895;SDS011;4484;48.928;10.066;2022-08-19T04:17:43;13.70;;;12.10;;
8895;SDS011;4484;48.928;10.066;2022-08-19T04:20:10;14.73;;;13.13;;
8895;SDS011;4484;48.928;10.066;2022-08-19T04:22:36;12.73;;;11.33;;
8895;SDS011;4484;48.928;10.066;2022-08-19T04:25:03;15.57;;;13.33;;
8895;SDS011;4484;48.928;10.066;2022-08-19T04:27:30;14.07;;;12.57;;
8895;SDS011;4484;48.928;10.066;2022-08-19T04:29:59;13.83;;;12.20;;
8895;SDS011;4484;48.928;10.066;2022-08-19T04:32:26;14.90;;;12.73;;
8895;SDS011;4484;48.928;10.066;2022-08-19T04:34:53;12.90;;;11.50;;
8895;SDS011;4484;48.928;10.066;2022-08-19T04:37:42;13.63;;;11.57;;
8895;SDS011;4484;48.928;10.066;2022-08-19T04:40:09;12.80;;;11.43;;
8895;SDS011;4484;48.928;10.066;2022-08-19T04:42:56;13.23;;;11.83;;
8895;SDS011;4484;48.928;10.066;2022-08-19T04:45:23;12.87;;;11.43;;
8895;SDS011;4484;48.928;10.066;2022-08-19T04:47:54;14.20;;;12.73;;
8895;SDS011;4484;48.928;10.066;2022-08-19T04:50:42;13.00;;;11.20;;
8895;SDS011;4484;48.928;10.066;2022-08-19T04:53:11;15.83;;;13.10;;
8895;SDS011;4484;48.928;10.066;2022-08-19T04:55:38;14.47;;;12.97;;
8895;SDS011;4484;48.928;10.066;2022-08-19T04:58:07;14.43;;;12.13;;
8895;SDS011;4484;48.928;10.066;2022-08-19T05:00:36;14.70;;;12.80;;
8895;SDS011;4484;48.928;10.066;2022-08-19T05:03:06;17.83;;;15.20;;
8895;SDS011;4484;48.928;10.066;2022-08-19T05:05:33;14.60;;;12.83;;
8895;SDS011;4484;48.928;10.066;2022-08-19T05:08:14;16.47;;;13.53;;
8895;SDS011;4484;48.928;10.066;2022-08-19T05:10:56;15.63;;;12.50;;
8895;SDS011;4484;48.928;10.066;2022-08-19T05:13:23;15.37;;;13.00;;
8895;SDS011;4484;48.928;10.066;2022-08-19T05:15:57;16.90;;;13.83;;
8895;SDS011;4484;48.928;10.066;2022-08-19T05:18:25;13.97;;;12.47;;
8895;SDS011;4484;48.928;10.066;2022-08-19T05:21:11;13.83;;;12.33;;
8895;SDS011;4484;48.928;10.066;2022-08-19T05:23:58;14.73;;;12.80;;
8895;SDS011;4484;48.928;10.066;2022-08-19T05:26:25;14.20;;;12.47;;
8895;SDS011;4484;48.928;10.066;2022-08-19T05:28:53;14.60;;;12.00;;
8895;SDS011;4484;48.928;10.066;2022-08-19T05:31:21;14.67;;;11.53;;
8895;SDS011;4484;48.928;10.066;2022-08-19T05:33:48;16.20;;;14.10;;
8895;SDS011;4484;48.928;10.066;2022-08-19T05:36:16;17.13;;;13.77;;
8895;SDS011;4484;48.928;10.066;2022-08-19T05:38:45;17.47;;;13.87;;
8895;SDS011;4484;48.928;10.066;2022-08-19T05:41:14;16.40;;;14.40;;
8895;SDS011;4484;48.928;10.066;2022-08-19T05:43:41;14.63;;;12.90;;
8895;SDS011;4484;48.928;10.066;2022-08-19T05:46:08;16.40;;;12.93;;
8895;SDS011;4484;48.928;10.066;2022-08-19T05:48:52;14.07;;;12.57;;
8895;SDS011;4484;48.928;10.066;2022-08-19T05:51:22;14.33;;;12.53;;
8895;SDS011;4484;48.928;10.066;2022-08-19T05:53:54;14.53;;;12.03;;
8895;SDS011;4484;48.928;10.066;2022-08-19T05:56:21;16.33;;;13.73;;
8895;SDS011;4484;48.928;10.066;2022-08-19T05:58:48;18.10;;;12.83;;
8895;SDS011;4484;48.928;10.066;2022-08-19T06:01:15;12.13;;;10.87;;
8895;SDS011;4484;48.928;10.066;2022-08-19T06:03:44;14.10;;;12.07;;
8895;SDS011;4484;48.928;10.066;2022-08-19T06:06:14;13.43;;;12.03;;
8895;SDS011;4484;48.928;10.066;2022-08-19T06:08:42;17.17;;;13.43;;
8895;SDS011;4484;48.928;10.066;2022-08-19T06:11:15;16.17;;;13.90;;
8895;SDS011;4484;48.928;10.066;2022-08-19T06:13:43;19.23;;;15.10;;
8895;SDS011;4484;48.928;10.066;2022-08-19T06:16:15;16.33;;;14.30;;
8895;SDS011;4484;48.928;10.066;2022-08-19T06:18:47;16.93;;;15.20;;
8895;SDS011;4484;48.928;10.066;2022-08-19T06:21:21;15.13;;;13.17;;
8895;SDS011;4484;48.928;10.066;2022-08-19T06:23:50;15.93;;;13.63;;
8895;SDS011;4484;48.928;10.066;2022-08-19T06:26:18;16.73;;;13.47;;
8895;SDS011;4484;48.928;10.066;2022-08-19T06:28:46;15.37;;;12.90;;
8895;SDS011;4484;48.928;10.066;2022-08-19T06:31:14;15.57;;;13.80;;
8895;SDS011;4484;48.928;10.066;2022-08-19T06:33:43;16.30;;;13.57;;
8895;SDS011;4484;48.928;10.066;2022-08-19T06:36:24;16.57;;;14.10;;
8895;SDS011;4484;48.928;10.066;2022-08-19T06:38:58;14.60;;;13.00;;
8895;SDS011;4484;48.928;10.066;2022-08-19T06:41:25;15.13;;;12.20;;
8895;SDS011;4484;48.928;10.066;2022-08-19T06:43:54;17.83;;;13.53;;
8895;SDS011;4484;48.928;10.066;2022-08-19T06:46:21;14.97;;;13.30;;
8895;SDS011;4484;48.928;10.066;2022-08-19T06:48:49;13.73;;;11.93;;
8895;SDS011;4484;48.928;10.066;2022-08-19T06:51:19;18.57;;;14.37;;
8895;SDS011;4484;48.928;10.066;2022-08-19T06:53:48;18.80;;;15.40;;
8895;SDS011;4484;48.928;10.066;2022-08-19T06:56:24;16.10;;;13.70;;
8895;SDS011;4484;48.928;10.066;2022-08-19T06:59:13;18.00;;;14.40;;
8895;SDS011;4484;48.928;10.066;2022-08-19T07:01:43;14.83;;;12.97;;
8895;SDS011;4484;48.928;10.066;2022-08-19T07:04:19;17.10;;;14.37;;
8895;SDS011;4484;48.928;10.066;2022-08-19T07:06:49;16.50;;;14.30;;
8895;SDS011;4484;48.928;10.066;2022-08-19T07:09:20;14.83;;;12.53;;
8895;SDS011;4484;48.928;10.066;2022-08-19T07:11:48;15.40;;;13.80;;
8895;SDS011;4484;48.928;10.066;2022-08-19T07:14:18;21.20;;;16.30;;
8895;SDS011;4484;48.928;10.066;2022-08-19T07:16:48;15.47;;;13.07;;
8895;SDS011;4484;48.928;10.066;2022-08-19T07:19:16;15.40;;;13.80;;
8895;SDS011;4484;48.928;10.066;2022-08-19T07:21:45;17.47;;;14.00;;
8895;SDS011;4484;48.928;10.066;2022-08-19T07:24:13;18.60;;;15.20;;
8895;SDS011;4484;48.928;10.066;2022-08-19T07:26:42;19.87;;;15.10;;
8895;SDS011;4484;48.928;10.066;2022-08-19T07:29:10;24.20;;;16.87;;
8895;SDS011;4484;48.928;10.066;2022-08-19T07:31:38;16.53;;;14.83;;
8895;SDS011;4484;48.928;10.066;2022-08-19T07:34:09;18.67;;;15.23;;
8895;SDS011;4484;48.928;10.066;2022-08-19T07:36:39;18.20;;;15.27;;
8895;SDS011;4484;48.928;10.066;2022-08-19T07:39:10;13.80;;;12.30;;
8895;SDS011;4484;48.928;10.066;2022-08-19T07:41:39;18.43;;;14.80;;
8895;SDS011;4484;48.928;10.066;2022-08-19T07:44:07;20.97;;;15.97;;
8895;SDS011;4484;48.928;10.066;2022-08-19T07:46:35;18.93;;;15.63;;
8895;SDS011;4484;48.928;10.066;2022-08-19T07:49:04;17.93;;;15.03;;
8895;SDS011;4484;48.928;10.066;2022-08-19T07:51:32;16.57;;;14.00;;
8895;SDS011;4484;48.928;10.066;2022-08-19T07:54:02;15.30;;;13.10;;
8895;SDS011;4484;48.928;10.066;2022-08-19T07:56:30;19.87;;;16.27;;
8895;SDS011;4484;48.928;10.066;2022-08-19T07:58:58;16.80;;;14.40;;
8895;SDS011;4484;48.928;10.066;2022-08-19T08:01:26;16.47;;;14.07;;
8895;SDS011;4484;48.928;10.066;2022-08-19T08:03:55;15.97;;;13.37;;
8895;SDS011;4484;48.928;10.066;2022-08-19T08:06:42;16.83;;;14.63;;
8895;SDS011;4484;48.928;10.066;2022-08-19T08:09:30;18.20;;;14.30;;
8895;SDS011;4484;48.928;10.066;2022-08-19T08:12:09;18.70;;;15.13;;
8895;SDS011;4484;48.928;10.066;2022-08-19T08:14:59;18.37;;;15.10;;
8895;SDS011;4484;48.928;10.066;2022-08-19T08:17:33;18.67;;;15.37;;
8895;SDS011;4484;48.928;10.066;2022-08-19T08:20:15;18.43;;;13.77;;
8895;SDS011;4484;48.928;10.066;2022-08-19T08:22:43;17.47;;;14.57;;
8895;SDS011;4484;48.928;10.066;2022-08-19T08:25:30;18.37;;;14.53;;
8895;SDS011;4484;48.928;10.066;2022-08-19T08:27:59;18.00;;;14.67;;
8895;SDS011;4484;48.928;10.066;2022-08-19T08:30:28;16.43;;;13.93;;
8895;SDS011;4484;48.928;10.066;2022-08-19T08:32:58;18.27;;;15.30;;
8895;SDS011;4484;48.928;10.066;2022-08-19T08:35:28;16.20;;;14.10;;
8895;SDS011;4484;48.928;10.066;2022-08-19T08:37:55;18.13;;;14.50;;
8895;SDS011;4484;48.928;10.066;2022-08-19T08:46:00;20.33;;;15.83;;
8895;SDS011;4484;48.928;10.066;2022-08-19T08:51:05;16.67;;;14.43;;
8895;SDS011;4484;48.928;10.066;2022-08-19T08:53:36;19.03;;;14.47;;
8895;SDS011;4484;48.928;10.066;2022-08-19T08:56:08;16.90;;;14.40;;
8895;SDS011;4484;48.928;10.066;2022-08-19T09:01:22;19.57;;;15.13;;
8895;SDS011;4484;48.928;10.066;2022-08-19T09:03:55;15.40;;;12.93;;
8895;SDS011;4484;48.928;10.066;2022-08-19T09:06:33;15.47;;;13.33;;
8895;SDS011;4484;48.928;10.066;2022-08-19T09:09:12;15.30;;;12.87;;
8895;SDS011;4484;48.928;10.066;2022-08-19T09:17:16;16.93;;;13.57;;
8895;SDS011;4484;48.928;10.066;2022-08-19T09:20:19;17.30;;;12.77;;
8895;SDS011;4484;48.928;10.066;2022-08-19T09:22:48;16.20;;;13.70;;
8895;SDS011;4484;48.928;10.066;2022-08-19T09:25:17;13.93;;;12.30;;
8895;SDS011;4484;48.928;10.066;2022-08-19T09:27:52;16.90;;;13.47;;
8895;SDS011;4484;48.928;10.066;2022-08-19T09:30:28;19.17;;;14.00;;
8895;SDS011;4484;48.928;10.066;2022-08-19T09:32:58;18.53;;;15.03;;
8895;SDS011;4484;48.928;10.066;2022-08-19T09:35:26;13.43;;;12.00;;
8895;SDS011;4484;48.928;10.066;2022-08-19T09:37:57;19.87;;;14.50;;
8895;SDS011;4484;48.928;10.066;2022-08-19T09:40:27;15.80;;;13.47;;
8895;SDS011;4484;48.928;10.066;2022-08-19T09:42:56;14.53;;;11.93;;
8895;SDS011;4484;48.928;10.066;2022-08-19T09:45:26;17.63;;;14.50;;
8895;SDS011;4484;48.928;10.066;2022-08-19T09:47:53;16.90;;;12.67;;
8895;SDS011;4484;48.928;10.066;2022-08-19T09:50:21;15.27;;;12.63;;
8895;SDS011;4484;48.928;10.066;2022-08-19T09:52:50;15.10;;;13.00;;
8895;SDS011;4484;48.928;10.066;2022-08-19T09:55:22;19.07;;;15.07;;
8895;SDS011;4484;48.928;10.066;2022-08-19T09:58:02;15.77;;;13.20;;
8895;SDS011;4484;48.928;10.066;2022-08-19T10:00:29;14.80;;;12.83;;
8895;SDS011;4484;48.928;10.066;2022-08-19T10:02:57;14.90;;;13.17;;
8895;SDS011;4484;48.928;10.066;2022-08-19T10:05:24;16.73;;;12.87;;
8895;SDS011;4484;48.928;10.066;2022-08-19T10:08:09;13.53;;;12.10;;
8895;SDS011;4484;48.928;10.066;2022-08-19T10:10:40;15.80;;;12.77;;
8895;SDS011;4484;48.928;10.066;2022-08-19T10:13:12;13.67;;;11.97;;
8895;SDS011;4484;48.928;10.066;2022-08-19T10:15:43;14.17;;;11.57;;
8895;SDS011;4484;48.928;10.066;2022-08-19T10:18:16;15.63;;;12.20;;
8895;SDS011;4484;48.928;10.066;2022-08-19T10:20:48;16.27;;;12.70;;
8895;SDS011;4484;48.928;10.066;2022-08-19T10:23:18;12.77;;;11.47;;
8895;SDS011;4484;48.928;10.066;2022-08-19T10:25:47;15.43;;;11.87;;
8895;SDS011;4484;48.928;10.066;2022-08-19T10:28:14;14.07;;;12.40;;
8895;SDS011;4484;48.928;10.066;2022-08-19T10:30:46;11.57;;;10.10;;
8895;SDS011;4484;48.928;10.066;2022-08-19T10:33:14;14.10;;;11.77;;
8895;SDS011;4484;48.928;10.066;2022-08-19T10:36:06;12.57;;;10.70;;
8895;SDS011;4484;48.928;10.066;2022-08-19T10:38:36;13.77;;;10.70;;
8895;SDS011;4484;48.928;10.066;2022-08-19T10:41:11;14.03;;;11.60;;
8895;SDS011;4484;48.928;10.066;2022-08-19T10:43:42;13.87;;;10.80;;
8895;SDS011;4484;48.928;10.066;2022-08-19T10:46:12;12.90;;;11.43;;
8895;SDS011;4484;48.928;10.066;2022-08-19T10:48:42;13.90;;;10.20;;
8895;SDS011;4484;48.928;10.066;2022-08-19T10:51:11;11.57;;;10.23;;
8895;SDS011;4484;48.928;10.066;2022-08-19T10:53:57;12.43;;;11.13;;
8895;SDS011;4484;48.928;10.066;2022-08-19T10:56:25;11.60;;;10.47;;
8895;SDS011;4484;48.928;10.066;2022-08-19T10:59:11;11.13;;;9.87;;
8895;SDS011;4484;48.928;10.066;2022-08-19T11:01:41;11.33;;;10.17;;
8895;SDS011;4484;48.928;10.066;2022-08-19T11:04:09;11.97;;;10.77;;
8895;SDS011;4484;48.928;10.066;2022-08-19T11:06:37;11.60;;;10.40;;
8895;SDS011;4484;48.928;10.066;2022-08-19T11:09:05;12.23;;;10.90;;
8895;SDS011;4484;48.928;10.066;2022-08-19T11:11:32;10.97;;;9.87;;
8895;SDS011;4484;48.928;10.066;2022-08-19T11:14:09;12.20;;;10.87;;
8895;SDS011;4484;48.928;10.066;2022-08-19T11:16:38;16.10;;;13.83;;
8895;SDS011;4484;48.928;10.066;2022-08-19T11:19:06;11.67;;;10.47;;
8895;SDS011;4484;48.928;10.066;2022-08-19T11:21:36;13.60;;;11.60;;
8895;SDS011;4484;48.928;10.066;2022-08-19T11:24:07;17.23;;;13.23;;
8895;SDS011;4484;48.928;10.066;2022-08-19T11:26:41;14.37;;;12.57;;
8895;SDS011;4484;48.928;10.066;2022-08-19T11:29:11;14.20;;;11.97;;
8895;SDS011;4484;48.928;10.066;2022-08-19T11:31:43;14.97;;;11.83;;
8895;SDS011;4484;48.928;10.066;2022-08-19T11:34:13;15.17;;;13.33;;
8895;SDS011;4484;48.928;10.066;2022-08-19T11:36:43;15.73;;;12.70;;
8895;SDS011;4484;48.928;10.066;2022-08-19T11:39:12;12.40;;;11.10;;
8895;SDS011;4484;48.928;10.066;2022-08-19T11:41:42;16.83;;;12.53;;
8895;SDS011;4484;48.928;10.066;2022-08-19T11:44:10;13.40;;;12.00;;
8895;SDS011;4484;48.928;10.066;2022-08-19T11:46:37;13.93;;;11.50;;
8895;SDS011;4484;48.928;10.066;2022-08-19T11:49:05;14.03;;;11.27;;
8895;SDS011;4484;48.928;10.066;2022-08-19T11:51:39;11.23;;;10.13;;
8895;SDS011;4484;48.928;10.066;2022-08-19T11:54:10;12.30;;;10.83;;
8895;SDS011;4484;48.928;10.066;2022-08-19T11:56:39;13.33;;;11.93;;
8895;SDS011;4484;48.928;10.066;2022-08-19T11:59:07;15.00;;;12.50;;
8895;SDS011;4484;48.928;10.066;2022-08-19T12:01:39;16.10;;;12.80;;
8895;SDS011;4484;48.928;10.066;2022-08-19T12:04:08;14.67;;;12.83;;
8895;SDS011;4484;48.928;10.066;2022-08-19T12:06:37;15.70;;;13.80;;
8895;SDS011;4484;48.928;10.066;2022-08-19T12:09:06;16.07;;;13.87;;
8895;SDS011;4484;48.928;10.066;2022-08-19T12:11:35;14.63;;;12.07;;
8895;SDS011;4484;48.928;10.066;2022-08-19T12:14:04;14.57;;;12.97;;
8895;SDS011;4484;48.928;10.066;2022-08-19T12:16:31;14.50;;;12.30;;
8895;SDS011;4484;48.928;10.066;2022-08-19T12:18:59;12.90;;;10.73;;
8895;SDS011;4484;48.928;10.066;2022-08-19T12:21:31;15.67;;;13.23;;
8895;SDS011;4484;48.928;10.066;2022-08-19T12:23:59;14.57;;;12.83;;
8895;SDS011;4484;48.928;10.066;2022-08-19T12:26:28;12.87;;;11.50;;
8895;SDS011;4484;48.928;10.066;2022-08-19T12:28:57;15.43;;;13.47;;
8895;SDS011;4484;48.928;10.066;2022-08-19T12:31:26;15.77;;;13.47;;
8895;SDS011;4484;48.928;10.066;2022-08-19T12:33:54;13.50;;;12.03;;
8895;SDS011;4484;48.928;10.066;2022-08-19T12:36:21;17.53;;;14.20;;
8895;SDS011;4484;48.928;10.066;2022-08-19T12:38:49;14.27;;;12.77;;
8895;SDS011;4484;48.928;10.066;2022-08-19T12:41:16;15.20;;;13.60;;
8895;SDS011;4484;48.928;10.066;2022-08-19T12:43:44;17.27;;;14.37;;
8895;SDS011;4484;48.928;10.066;2022-08-19T12:46:11;14.90;;;13.30;;
8895;SDS011;4484;48.928;10.066;2022-08-19T12:48:41;14.80;;;12.10;;
8895;SDS011;4484;48.928;10.066;2022-08-19T12:51:09;14.90;;;12.77;;
8895;SDS011;4484;48.928;10.066;2022-08-19T12:53:38;13.77;;;12.17;;
8895;SDS011;4484;48.928;10.066;2022-08-19T12:56:06;15.73;;;13.87;;
8895;SDS011;4484;48.928;10.066;2022-08-19T12:58:38;14.37;;;12.83;;
8895;SDS011;4484;48.928;10.066;2022-08-19T13:01:09;16.07;;;14.30;;
8895;SDS011;4484;48.928;10.066;2022-08-19T13:03:46;15.33;;;13.40;;
8895;SDS011;4484;48.928;10.066;2022-08-19T13:06:17;15.10;;;13.57;;
8895;SDS011;4484;48.928;10.066;2022-08-19T13:08:46;13.53;;;12.13;;
8895;SDS011;4484;48.928;10.066;2022-08-19T13:11:14;14.87;;;11.27;;
8895;SDS011;4484;48.928;10.066;2022-08-19T13:13:44;11.97;;;10.60;;
8895;SDS011;4484;48.928;10.066;2022-08-19T13:16:13;11.13;;;9.93;;
8895;SDS011;4484;48.928;10.066;2022-08-19T13:18:41;12.23;;;11.00;;
8895;SDS011;4484;48.928;10.066;2022-08-19T13:21:10;12.83;;;11.43;;
8895;SDS011;4484;48.928;10.066;2022-08-19T13:23:40;11.93;;;10.73;;
8895;SDS011;4484;48.928;10.066;2022-08-19T13:26:08;11.73;;;10.37;;
8895;SDS011;4484;48.928;10.066;2022-08-19T13:28:36;12.53;;;11.23;;
8895;SDS011;4484;48.928;10.066;2022-08-19T13:31:26;10.67;;;9.57;;
8895;SDS011;4484;48.928;10.066;2022-08-19T13:34:13;12.40;;;11.10;;
8895;SDS011;4484;48.928;10.066;2022-08-19T13:36:42;12.80;;;11.37;;
8895;SDS011;4484;48.928;10.066;2022-08-19T13:39:09;12.90;;;11.60;;
8895;SDS011;4484;48.928;10.066;2022-08-19T13:41:36;10.50;;;9.40;;
8895;SDS011;4484;48.928;10.066;2022-08-19T13:44:09;10.13;;;9.13;;
8895;SDS011;4484;48.928;10.066;2022-08-19T13:46:35;12.67;;;10.27;;
8895;SDS011;4484;48.928;10.066;2022-08-19T13:49:02;11.33;;;9.97;;
8895;SDS011;4484;48.928;10.066;2022-08-19T13:51:30;11.53;;;10.37;;
8895;SDS011;4484;48.928;10.066;2022-08-19T13:53:57;12.37;;;10.53;;
8895;SDS011;4484;48.928;10.066;2022-08-19T13:56:24;12.87;;;10.53;;
8895;SDS011;4484;48.928;10.066;2022-08-19T13:58:53;11.60;;;10.30;;
8895;SDS011;4484;48.928;10.066;2022-08-19T14:01:25;10.47;;;9.37;;
8895;SDS011;4484;48.928;10.066;2022-08-19T14:03:53;10.60;;;9.60;;
8895;SDS011;4484;48.928;10.066;2022-08-19T14:06:20;10.10;;;9.10;;
8895;SDS011;4484;48.928;10.066;2022-08-19T14:08:48;10.87;;;9.73;;
8895;SDS011;4484;48.928;10.066;2022-08-19T14:11:15;9.80;;;8.83;;
8895;SDS011;4484;48.928;10.066;2022-08-19T14:13:43;11.37;;;10.33;;
8895;SDS011;4484;48.928;10.066;2022-08-19T14:16:10;11.97;;;10.33;;
8895;SDS011;4484;48.928;10.066;2022-08-19T14:18:39;11.97;;;10.20;;
8895;SDS011;4484;48.928;10.066;2022-08-19T14:21:07;11.00;;;9.87;;
8895;SDS011;4484;48.928;10.066;2022-08-19T14:23:41;11.47;;;10.27;;
8895;SDS011;4484;48.928;10.066;2022-08-19T14:26:09;10.17;;;9.07;;
8895;SDS011;4484;48.928;10.066;2022-08-19T14:28:38;9.43;;;8.53;;
8895;SDS011;4484;48.928;10.066;2022-08-19T14:31:12;12.03;;;10.80;;
8895;SDS011;4484;48.928;10.066;2022-08-19T14:33:47;12.60;;;11.20;;
8895;SDS011;4484;48.928;10.066;2022-08-19T14:36:15;11.30;;;9.57;;
8895;SDS011;4484;48.928;10.066;2022-08-19T14:38:42;10.03;;;9.03;;
8895;SDS011;4484;48.928;10.066;2022-08-19T14:41:11;10.20;;;9.20;;
8895;SDS011;4484;48.928;10.066;2022-08-19T14:43:38;10.67;;;9.57;;
8895;SDS011;4484;48.928;10.066;2022-08-19T14:46:05;9.90;;;8.73;;
8895;SDS011;4484;48.928;10.066;2022-08-19T14:48:32;11.77;;;10.37;;
8895;SDS011;4484;48.928;10.066;2022-08-19T14:50:59;13.80;;;11.10;;
8895;SDS011;4484;48.928;10.066;2022-08-19T14:53:27;11.93;;;10.77;;
8895;SDS011;4484;48.928;10.066;2022-08-19T14:55:54;12.40;;;9.77;;
8895;SDS011;4484;48.928;10.066;2022-08-19T14:58:21;10.80;;;9.70;;
8895;SDS011;4484;48.928;10.066;2022-08-19T15:00:56;11.33;;;10.27;;
8895;SDS011;4484;48.928;10.066;2022-08-19T15:03:25;13.00;;;10.30;;
8895;SDS011;4484;48.928;10.066;2022-08-19T15:05:52;11.03;;;9.90;;
8895;SDS011;4484;48.928;10.066;2022-08-19T15:08:20;10.03;;;8.90;;
8895;SDS011;4484;48.928;10.066;2022-08-19T15:10:51;11.50;;;10.40;;
8895;SDS011;4484;48.928;10.066;2022-08-19T15:13:19;11.70;;;10.47;;
8895;SDS011;4484;48.928;10.066;2022-08-19T15:15:46;10.10;;;9.10;;
8895;SDS011;4484;48.928;10.066;2022-08-19T15:18:14;10.10;;;9.10;;
8895;SDS011;4484;48.928;10.066;2022-08-19T15:20:41;9.40;;;8.40;;